Time;durP1;ratioP1;P1;durP2;ratioP2;P2;SDS_P1;SDS_P2;PMS_P1;PMS_P2;Temp;Humidity;BMP_temperature;BMP_pressure;BME280_temperature;BME280_humidity;BME280_pressure;Samples;Min_cycle;Max_cycle;Signal;HPM_P1;HPM_P2
2022/11/02 00:01:14;;;;;;;;;;;11.00;99.90;;;;;;5058577;28;19971;-64
2022/11/02 00:03:42;;;;;;;;;;;11.00;99.90;;;;;;5061865;28;19975;-64
2022/11/02 00:06:10;;;;;;;;;;;10.90;99.90;;;;;;5064662;28;19982;-63
2022/11/02 00:08:37;;;;;;;;;;;10.90;99.90;;;;;;5069426;28;19972;-64
2022/11/02 00:11:05;;;;;;;;;;;10.90;99.90;;;;;;5065642;28;19972;-64
2022/11/02 00:13:34;;;;;;;;;;;10.90;99.90;;;;;;5070140;28;20444;-65
2022/11/02 00:16:02;;;;;;;;;;;10.80;99.90;;;;;;5070221;28;19978;-64
2022/11/02 00:18:30;;;;;;;;;;;10.80;99.90;;;;;;5063733;28;19975;-64
2022/11/02 00:20:58;;;;;;;;;;;10.80;99.90;;;;;;5056119;28;19964;-64
2022/11/02 00:23:26;;;;;;;;;;;10.70;99.90;;;;;;5064477;28;19976;-64
2022/11/02 00:25:55;;;;;;;;;;;10.70;99.90;;;;;;5067419;28;20332;-65
2022/11/02 00:28:23;;;;;;;;;;;10.70;99.90;;;;;;5066739;28;19963;-64
2022/11/02 00:30:52;;;;;;;;;;;10.70;99.90;;;;;;5065709;28;19969;-64
2022/11/02 00:33:19;;;;;;;;;;;10.70;99.90;;;;;;5068274;28;19974;-64
2022/11/02 00:35:47;;;;;;;;;;;10.70;99.90;;;;;;5068874;28;20507;-64
2022/11/02 00:38:15;;;;;;;;;;;10.60;99.90;;;;;;5066840;28;19967;-65
2022/11/02 00:40:43;;;;;;;;;;;10.70;99.90;;;;;;5061466;28;20090;-64
2022/11/02 00:43:11;;;;;;;;;;;10.70;99.90;;;;;;5067026;28;20515;-65
2022/11/02 00:45:38;;;;;;;;;;;10.70;99.90;;;;;;5064089;28;20433;-64
2022/11/02 00:48:07;;;;;;;;;;;10.80;99.90;;;;;;5058302;28;19975;-65
2022/11/02 00:50:35;;;;;;;;;;;10.70;99.90;;;;;;5059870;28;20441;-65
2022/11/02 00:53:05;;;;;;;;;;;10.80;99.90;;;;;;5057455;28;21397;-65
2022/11/02 00:55:33;;;;;;;;;;;10.70;99.90;;;;;;5064179;28;19983;-64
2022/11/02 00:58:00;;;;;;;;;;;10.70;99.90;;;;;;5065203;28;19964;-64
2022/11/02 01:00:29;;;;;;;;;;;10.70;99.90;;;;;;5068666;28;19967;-64
2022/11/02 01:02:59;;;;;;;;;;;10.70;99.90;;;;;;5061890;28;21394;-64
2022/11/02 01:05:28;;;;;;;;;;;10.80;99.90;;;;;;5064774;28;19971;-64
2022/11/02 01:07:56;;;;;;;;;;;10.80;99.90;;;;;;5052539;28;19970;-64
2022/11/02 01:10:24;;;;;;;;;;;10.80;99.90;;;;;;5032823;28;19979;-64
2022/11/02 01:12:52;;;;;;;;;;;10.70;99.90;;;;;;5033128;28;19968;-64
2022/11/02 01:15:20;;;;;;;;;;;10.70;99.90;;;;;;5032809;28;19995;-64
2022/11/02 01:17:48;;;;;;;;;;;10.70;99.90;;;;;;5034446;28;19972;-64
2022/11/02 01:20:15;;;;;;;;;;;10.60;99.90;;;;;;5052536;28;19968;-64
2022/11/02 01:22:44;;;;;;;;;;;10.60;99.90;;;;;;5052773;28;19968;-64
2022/11/02 01:25:12;;;;;;;;;;;10.70;99.90;;;;;;5052456;28;19968;-64
2022/11/02 01:27:40;;;;;;;;;;;10.70;99.90;;;;;;5052627;28;19975;-64
2022/11/02 01:30:08;;;;;;;;;;;10.80;99.90;;;;;;5052297;28;20516;-64
2022/11/02 01:32:36;;;;;;;;;;;10.70;99.90;;;;;;5052522;28;19975;-64
2022/11/02 01:35:03;;;;;;;;;;;10.70;99.90;;;;;;5052364;28;20429;-64
2022/11/02 01:37:31;;;;;;;;;;;10.70;99.90;;;;;;5052551;28;19976;-64
2022/11/02 01:40:00;;;;;;;;;;;10.70;99.90;;;;;;5052037;28;19972;-64
2022/11/02 01:42:28;;;;;;;;;;;10.60;99.90;;;;;;5052471;28;19968;-64
2022/11/02 01:44:56;;;;;;;;;;;10.60;99.90;;;;;;5052103;28;19990;-64
2022/11/02 01:47:25;;;;;;;;;;;10.60;99.90;;;;;;5051719;28;19968;-65
2022/11/02 01:49:55;;;;;;;;;;;10.60;99.90;;;;;;5051551;28;19968;-64
2022/11/02 01:52:25;;;;;;;;;;;10.60;99.90;;;;;;5052278;28;19975;-65
2022/11/02 01:54:55;;;;;;;;;;;10.70;99.90;;;;;;5052201;28;19983;-64
2022/11/02 01:57:25;;;;;;;;;;;10.70;99.90;;;;;;5052191;28;19968;-64
2022/11/02 01:59:56;;;;;;;;;;;10.60;99.90;;;;;;5051612;28;19978;-65
2022/11/02 02:02:24;;;;;;;;;;;10.50;99.90;;;;;;5052129;28;19972;-64
2022/11/02 02:04:54;;;;;;;;;;;10.40;99.90;;;;;;5052083;28;20503;-64
2022/11/02 02:07:24;;;;;;;;;;;10.40;99.90;;;;;;5052051;28;19997;-64
2022/11/02 02:09:52;;;;;;;;;;;10.40;99.90;;;;;;5051418;28;19968;-64
2022/11/02 02:12:20;;;;;;;;;;;10.50;99.90;;;;;;5051976;28;20361;-64
2022/11/02 02:14:50;;;;;;;;;;;10.70;99.90;;;;;;5051947;28;19968;-64
2022/11/02 02:17:26;;;;;;;;;;;10.70;99.90;;;;;;5052080;28;20077;-64
2022/11/02 02:19:57;;;;;;;;;;;10.70;99.90;;;;;;5051483;28;19975;-64
2022/11/02 02:22:44;;;;;;;;;;;10.70;99.90;;;;;;5051832;28;19968;-64
2022/11/02 02:25:23;;;;;;;;;;;10.60;99.90;;;;;;5052089;28;19971;-64
2022/11/02 02:28:03;;;;;;;;;;;10.70;99.90;;;;;;5051910;28;19969;-64
2022/11/02 02:30:37;;;;;;;;;;;10.90;99.90;;;;;;5051369;28;20400;-63
2022/11/02 02:33:05;;;;;;;;;;;10.90;99.90;;;;;;5051829;28;20006;-64
2022/11/02 02:35:38;;;;;;;;;;;10.80;99.90;;;;;;5051728;28;19975;-64
2022/11/02 02:38:08;;;;;;;;;;;10.70;99.90;;;;;;5052061;28;19972;-64
2022/11/02 02:40:37;;;;;;;;;;;10.70;99.90;;;;;;5051489;28;19972;-64
2022/11/02 02:43:08;;;;;;;;;;;10.70;99.90;;;;;;5051762;28;19979;-64
2022/11/02 02:45:37;;;;;;;;;;;10.90;99.90;;;;;;5051769;28;20351;-64
2022/11/02 02:48:07;;;;;;;;;;;10.90;99.90;;;;;;5051825;28;19978;-64
2022/11/02 02:50:37;;;;;;;;;;;11.10;99.90;;;;;;5050846;28;19964;-64
2022/11/02 02:53:06;;;;;;;;;;;11.20;99.90;;;;;;5051690;28;19968;-64
2022/11/02 02:55:37;;;;;;;;;;;11.10;99.90;;;;;;5051452;28;19968;-64
2022/11/02 02:58:07;;;;;;;;;;;11.10;99.90;;;;;;5053787;28;19975;-64
2022/11/02 03:00:36;;;;;;;;;;;11.20;99.90;;;;;;5055190;28;19972;-64
2022/11/02 03:03:04;;;;;;;;;;;11.20;99.90;;;;;;5055441;28;19968;-64
2022/11/02 03:05:33;;;;;;;;;;;11.10;99.90;;;;;;5055272;28;20011;-64
2022/11/02 03:08:04;;;;;;;;;;;10.90;99.90;;;;;;5055317;28;20062;-65
2022/11/02 03:10:34;;;;;;;;;;;10.80;99.90;;;;;;5054888;28;20396;-65
2022/11/02 03:13:08;;;;;;;;;;;11.10;99.90;;;;;;5055424;28;19973;-65
2022/11/02 03:15:40;;;;;;;;;;;11.20;99.90;;;;;;5055028;28;19968;-64
2022/11/02 03:18:11;;;;;;;;;;;11.30;99.90;;;;;;5055217;28;20068;-64
2022/11/02 03:20:44;;;;;;;;;;;11.40;99.90;;;;;;5054800;28;19971;-64
2022/11/02 03:23:13;;;;;;;;;;;11.40;99.90;;;;;;5055180;28;19975;-64
2022/11/02 03:25:45;;;;;;;;;;;11.30;99.90;;;;;;5054804;28;19968;-64
2022/11/02 03:28:16;;;;;;;;;;;11.30;99.90;;;;;;5055031;28;20344;-64
2022/11/02 03:30:47;;;;;;;;;;;11.20;99.90;;;;;;5054525;28;20340;-64
2022/11/02 03:33:19;;;;;;;;;;;11.10;99.90;;;;;;5054936;28;19968;-64
2022/11/02 03:35:51;;;;;;;;;;;11.10;99.90;;;;;;5054740;28;20445;-64
2022/11/02 03:38:21;;;;;;;;;;;11.10;99.90;;;;;;5054782;28;20022;-64
2022/11/02 03:40:50;;;;;;;;;;;11.00;99.90;;;;;;5054467;28;20609;-64
2022/11/02 03:43:19;;;;;;;;;;;11.10;99.90;;;;;;5054769;28;20460;-64
2022/11/02 03:45:50;;;;;;;;;;;11.40;99.90;;;;;;5054493;28;19968;-64
2022/11/02 03:48:17;;;;;;;;;;;11.40;99.90;;;;;;5054237;28;19968;-64
2022/11/02 03:50:46;;;;;;;;;;;11.30;99.90;;;;;;5054632;28;20358;-64
2022/11/02 03:53:16;;;;;;;;;;;11.20;99.90;;;;;;5054498;28;20356;-65
2022/11/02 03:55:47;;;;;;;;;;;11.20;99.90;;;;;;5054296;28;20479;-65
2022/11/02 03:58:14;;;;;;;;;;;11.20;99.90;;;;;;5054444;28;20437;-65
2022/11/02 04:00:46;;;;;;;;;;;11.00;99.90;;;;;;5054054;28;20373;-63
2022/11/02 04:03:16;;;;;;;;;;;10.80;99.90;;;;;;5054531;28;19972;-65
2022/11/02 04:05:44;;;;;;;;;;;10.80;99.90;;;;;;5054088;28;19968;-64
2022/11/02 04:08:23;;;;;;;;;;;10.90;99.90;;;;;;5053702;28;19968;-64
2022/11/02 04:16:22;;;;;;;;;;;11.10;99.90;;;;;;5053957;28;19971;-64
2022/11/02 04:25:14;;;;;;;;;;;11.10;99.90;;;;;;5053667;28;19963;-64
2022/11/02 04:27:10;;;;;;;;;;;11.10;99.90;;;;;;5031166;28;19978;-65
2022/11/02 04:29:43;;;;;;;;;;;11.10;99.90;;;;;;5053755;28;20011;-64
2022/11/02 04:32:10;;;;;;;;;;;11.10;99.90;;;;;;5053925;28;19972;-64
2022/11/02 04:34:39;;;;;;;;;;;11.10;99.90;;;;;;5053550;28;20354;-64
2022/11/02 04:38:39;;;;;;;;;;;11.10;99.90;;;;;;5053609;28;19972;-64
2022/11/02 04:39:53;;;;;;;;;;;11.00;99.90;;;;;;5053358;28;20063;-63
2022/11/02 04:42:21;;;;;;;;;;;11.00;99.90;;;;;;5053639;28;19974;-64
2022/11/02 04:44:49;;;;;;;;;;;11.00;99.90;;;;;;5053493;28;19979;-65
2022/11/02 04:47:16;;;;;;;;;;;10.90;99.90;;;;;;5053556;28;20433;-65
2022/11/02 04:49:45;;;;;;;;;;;10.90;99.90;;;;;;5052716;28;20413;-65
2022/11/02 04:52:13;;;;;;;;;;;10.90;99.90;;;;;;5057529;28;19968;-65
2022/11/02 04:54:41;;;;;;;;;;;10.80;99.90;;;;;;5073098;28;20062;-65
2022/11/02 04:57:08;;;;;;;;;;;10.80;99.90;;;;;;5073039;28;19968;-65
2022/11/02 04:59:36;;;;;;;;;;;10.80;99.90;;;;;;5072897;28;20348;-64
2022/11/02 05:02:04;;;;;;;;;;;10.80;99.90;;;;;;5073211;28;19976;-64
2022/11/02 05:04:32;;;;;;;;;;;10.70;99.90;;;;;;5072888;28;19999;-64
2022/11/02 05:07:05;;;;;;;;;;;10.70;99.90;;;;;;5072895;28;20437;-64
2022/11/02 05:09:32;;;;;;;;;;;10.70;99.90;;;;;;5072893;28;20378;-65
2022/11/02 05:12:03;;;;;;;;;;;10.70;99.90;;;;;;5072908;28;19972;-65
2022/11/02 05:14:31;;;;;;;;;;;10.70;99.90;;;;;;5072961;28;20066;-64
2022/11/02 05:16:59;;;;;;;;;;;10.70;99.90;;;;;;5072528;28;19968;-65
2022/11/02 05:19:27;;;;;;;;;;;10.60;99.90;;;;;;5064894;28;19968;-64
2022/11/02 05:21:54;;;;;;;;;;;10.60;99.90;;;;;;5053964;28;19974;-64
2022/11/02 05:24:23;;;;;;;;;;;10.60;99.90;;;;;;5072758;28;19990;-64
2022/11/02 05:26:51;;;;;;;;;;;10.60;99.90;;;;;;5072613;28;19968;-64
2022/11/02 05:29:20;;;;;;;;;;;10.50;99.90;;;;;;5072423;28;20479;-64
2022/11/02 05:31:48;;;;;;;;;;;10.50;99.90;;;;;;5072406;28;19967;-64
2022/11/02 05:34:16;;;;;;;;;;;10.40;99.90;;;;;;5072560;28;20428;-64
2022/11/02 05:36:46;;;;;;;;;;;10.40;99.90;;;;;;5072252;28;20455;-64
2022/11/02 05:39:14;;;;;;;;;;;10.40;99.90;;;;;;5072520;28;19982;-64
2022/11/02 05:41:43;;;;;;;;;;;10.50;99.90;;;;;;5066832;28;19963;-65
2022/11/02 05:44:10;;;;;;;;;;;10.40;99.90;;;;;;5072063;28;19971;-64
2022/11/02 05:46:38;;;;;;;;;;;10.40;99.90;;;;;;5072417;28;19971;-64
2022/11/02 05:49:06;;;;;;;;;;;10.30;99.90;;;;;;5089259;23;20170;-64
2022/11/02 05:51:34;;;;;;;;;;;10.20;99.90;;;;;;5049907;28;19964;-64
2022/11/02 05:54:01;;;;;;;;;;;10.20;99.90;;;;;;5052160;28;20356;-64
2022/11/02 05:56:29;;;;;;;;;;;10.10;99.90;;;;;;5051311;28;19968;-65
2022/11/02 05:58:58;;;;;;;;;;;10.10;99.90;;;;;;5054359;28;20059;-64
2022/11/02 06:01:26;;;;;;;;;;;10.00;99.90;;;;;;5058489;28;19964;-63
2022/11/02 06:03:53;;;;;;;;;;;9.90;99.90;;;;;;5063868;28;20444;-63
2022/11/02 06:06:21;;;;;;;;;;;9.90;99.90;;;;;;5064454;28;20360;-63
2022/11/02 06:08:49;;;;;;;;;;;9.90;99.90;;;;;;5063492;28;19971;-63
2022/11/02 06:11:17;;;;;;;;;;;9.90;99.90;;;;;;5064227;28;19980;-63
2022/11/02 06:13:44;;;;;;;;;;;9.90;99.90;;;;;;5073619;28;19972;-63
2022/11/02 06:16:14;;;;;;;;;;;9.80;99.90;;;;;;5063426;28;20352;-63
2022/11/02 06:18:49;;;;;;;;;;;9.70;99.90;;;;;;5058577;28;19971;-63
2022/11/02 06:21:16;;;;;;;;;;;9.70;99.90;;;;;;5058493;28;20356;-63
2022/11/02 06:23:46;;;;;;;;;;;9.70;99.90;;;;;;5054715;28;20361;-63
2022/11/02 06:26:14;;;;;;;;;;;9.60;99.90;;;;;;5057557;28;20101;-62
2022/11/02 06:28:42;;;;;;;;;;;9.60;99.90;;;;;;5054662;28;20353;-63
2022/11/02 06:31:10;;;;;;;;;;;9.60;99.90;;;;;;5061361;28;19978;-64
2022/11/02 06:33:39;;;;;;;;;;;9.50;99.90;;;;;;5072747;28;19968;-63
2022/11/02 06:36:07;;;;;;;;;;;9.50;99.90;;;;;;5066856;28;19983;-64
2022/11/02 06:38:35;;;;;;;;;;;9.40;99.90;;;;;;5061482;28;19982;-63
2022/11/02 06:41:05;;;;;;;;;;;9.50;99.90;;;;;;5060304;28;19976;-64
2022/11/02 06:43:35;;;;;;;;;;;9.50;99.90;;;;;;5066272;28;19978;-64
2022/11/02 06:46:03;;;;;;;;;;;9.50;99.90;;;;;;5072399;28;19975;-64
2022/11/02 06:48:31;;;;;;;;;;;9.60;99.90;;;;;;5061516;28;20558;-63
2022/11/02 06:51:03;;;;;;;;;;;9.70;99.90;;;;;;5061718;28;20114;-63
2022/11/02 06:53:31;;;;;;;;;;;9.70;99.90;;;;;;5062898;28;19972;-63
2022/11/02 06:56:00;;;;;;;;;;;9.80;99.90;;;;;;5063333;28;20017;-63
2022/11/02 06:58:27;;;;;;;;;;;9.90;99.90;;;;;;5060006;28;20433;-63
2022/11/02 07:00:59;;;;;;;;;;;10.00;99.90;;;;;;5051603;28;19968;-63
2022/11/02 07:03:27;;;;;;;;;;;9.90;99.90;;;;;;5062762;28;20021;-64
2022/11/02 07:05:55;;;;;;;;;;;10.10;99.90;;;;;;5077166;28;19963;-64
2022/11/02 07:08:24;;;;;;;;;;;10.10;99.90;;;;;;5077878;28;19968;-63
2022/11/02 07:10:52;;;;;;;;;;;10.10;99.90;;;;;;5070217;28;20347;-64
2022/11/02 07:13:20;;;;;;;;;;;10.00;99.90;;;;;;5074492;28;19979;-63
2022/11/02 07:15:50;;;;;;;;;;;9.90;99.90;;;;;;5074015;28;20026;-63
2022/11/02 07:18:18;;;;;;;;;;;9.80;99.90;;;;;;5074119;28;20062;-63
2022/11/02 07:20:46;;;;;;;;;;;9.90;99.90;;;;;;5074296;28;20086;-64
2022/11/02 07:23:13;;;;;;;;;;;9.90;99.90;;;;;;5076233;28;20436;-62
2022/11/02 07:25:42;;;;;;;;;;;10.00;99.90;;;;;;5068715;28;20348;-63
2022/11/02 07:28:10;;;;;;;;;;;10.10;99.90;;;;;;5079354;28;19967;-63
2022/11/02 07:30:38;;;;;;;;;;;10.20;99.90;;;;;;5078310;28;19967;-63
2022/11/02 07:33:06;;;;;;;;;;;10.40;99.90;;;;;;5095023;28;19967;-63
2022/11/02 07:35:34;;;;;;;;;;;10.60;99.90;;;;;;5094905;28;20452;-64
2022/11/02 07:38:03;;;;;;;;;;;10.80;99.90;;;;;;5095089;28;20371;-63
2022/11/02 07:40:31;;;;;;;;;;;10.90;99.90;;;;;;5094739;28;20420;-63
2022/11/02 07:43:01;;;;;;;;;;;11.10;99.90;;;;;;5094797;28;19982;-63
2022/11/02 07:45:29;;;;;;;;;;;11.20;99.90;;;;;;5094722;28;19967;-63
2022/11/02 07:47:57;;;;;;;;;;;11.40;99.90;;;;;;5094789;28;20021;-63
2022/11/02 07:50:27;;;;;;;;;;;11.50;99.90;;;;;;5078278;28;19968;-63
2022/11/02 07:52:55;;;;;;;;;;;11.60;99.90;;;;;;5074415;28;19967;-63
2022/11/02 07:55:24;;;;;;;;;;;11.80;99.90;;;;;;5074569;28;20429;-63
2022/11/02 07:57:53;;;;;;;;;;;12.00;99.90;;;;;;5074264;28;20058;-63
2022/11/02 08:00:22;;;;;;;;;;;12.10;99.90;;;;;;5074166;28;20445;-63
2022/11/02 08:02:53;;;;;;;;;;;12.30;99.90;;;;;;5074776;28;20074;-63
2022/11/02 08:05:21;;;;;;;;;;;12.50;99.90;;;;;;5074412;28;20018;-63
2022/11/02 08:07:56;;;;;;;;;;;12.50;99.90;;;;;;5074206;28;20326;-63
2022/11/02 08:10:24;;;;;;;;;;;12.50;99.90;;;;;;5074135;28;19968;-63
2022/11/02 08:12:51;;;;;;;;;;;12.70;99.90;;;;;;5074222;28;19971;-63
2022/11/02 08:15:19;;;;;;;;;;;12.70;99.90;;;;;;5074104;28;19967;-63
2022/11/02 08:17:48;;;;;;;;;;;12.80;99.90;;;;;;5073801;28;20086;-63
2022/11/02 08:20:16;;;;;;;;;;;12.80;99.90;;;;;;5073666;28;19974;-63
2022/11/02 08:22:44;;;;;;;;;;;13.00;99.90;;;;;;5073968;28;19967;-63
2022/11/02 08:25:11;;;;;;;;;;;13.20;99.90;;;;;;5074495;28;20322;-63
2022/11/02 08:27:39;;;;;;;;;;;13.40;99.90;;;;;;5073990;28;19974;-63
2022/11/02 08:30:07;;;;;;;;;;;13.60;99.90;;;;;;5073646;28;20456;-63
2022/11/02 08:32:35;;;;;;;;;;;13.90;99.90;;;;;;5073721;28;19974;-63
2022/11/02 08:35:05;;;;;;;;;;;14.30;99.90;;;;;;5074028;28;20076;-65
2022/11/02 08:37:33;;;;;;;;;;;14.70;99.90;;;;;;5073490;28;20167;-65
2022/11/02 08:40:00;;;;;;;;;;;14.70;99.90;;;;;;5073497;28;19967;-65
2022/11/02 08:42:28;;;;;;;;;;;14.90;99.90;;;;;;5073711;28;20062;-65
2022/11/02 08:44:56;;;;;;;;;;;15.00;99.90;;;;;;5073733;28;19994;-65
2022/11/02 08:47:23;;;;;;;;;;;15.10;99.90;;;;;;5073363;28;19976;-65
2022/11/02 08:49:51;;;;;;;;;;;15.50;99.90;;;;;;5072365;28;19964;-65
2022/11/02 08:52:20;;;;;;;;;;;15.70;99.90;;;;;;5073252;28;19971;-65
2022/11/02 08:54:48;;;;;;;;;;;15.80;99.90;;;;;;5072956;28;19978;-64
2022/11/02 08:57:15;;;;;;;;;;;16.00;99.90;;;;;;5073006;28;20445;-64
2022/11/02 08:59:43;;;;;;;;;;;16.00;99.90;;;;;;5051948;28;20069;-65
2022/11/02 09:02:11;;;;;;;;;;;16.00;99.90;;;;;;5073269;28;19968;-65
2022/11/02 09:04:39;;;;;;;;;;;16.00;99.90;;;;;;5073033;28;19966;-65
2022/11/02 09:07:07;;;;;;;;;;;16.20;99.90;;;;;;5072781;28;19968;-65
2022/11/02 09:09:36;;;;;;;;;;;16.30;99.90;;;;;;5072943;28;19971;-64
2022/11/02 09:12:04;;;;;;;;;;;16.40;99.90;;;;;;5073140;28;20455;-65
2022/11/02 09:14:31;;;;;;;;;;;16.80;99.90;;;;;;5073016;28;19972;-65
2022/11/02 09:16:59;;;;;;;;;;;17.00;99.90;;;;;;5072601;28;19967;-65
2022/11/02 09:19:27;;;;;;;;;;;17.10;99.90;;;;;;5072568;28;20082;-65
2022/11/02 09:21:55;;;;;;;;;;;17.00;99.90;;;;;;5072636;28;19963;-65
2022/11/02 09:24:22;;;;;;;;;;;17.10;99.90;;;;;;5072880;28;19976;-65
2022/11/02 09:26:53;;;;;;;;;;;17.30;99.90;;;;;;5072633;28;19970;-65
2022/11/02 09:29:21;;;;;;;;;;;17.50;99.90;;;;;;5073123;28;19980;-65
2022/11/02 09:31:53;;;;;;;;;;;17.40;99.90;;;;;;5072947;28;20778;-65
2022/11/02 09:34:21;;;;;;;;;;;17.40;99.90;;;;;;5072685;28;19993;-64
2022/11/02 09:36:49;;;;;;;;;;;17.30;99.90;;;;;;5072545;28;19967;-64
2022/11/02 09:39:17;;;;;;;;;;;17.60;99.90;;;;;;5072254;28;19967;-65
2022/11/02 09:41:47;;;;;;;;;;;17.40;99.90;;;;;;5072193;28;19993;-65
2022/11/02 09:44:20;;;;;;;;;;;17.40;99.90;;;;;;5072261;28;19973;-65
2022/11/02 09:46:48;;;;;;;;;;;17.60;99.90;;;;;;5072522;28;20295;-65
2022/11/02 09:49:36;;;;;;;;;;;17.50;99.90;;;;;;5071879;28;19962;-64
2022/11/02 09:52:06;;;;;;;;;;;17.20;99.90;;;;;;5072278;28;19976;-65
2022/11/02 09:54:35;;;;;;;;;;;17.00;99.90;;;;;;5072177;28;19977;-64
2022/11/02 09:57:05;;;;;;;;;;;17.20;99.90;;;;;;5072323;28;19974;-65
2022/11/02 09:59:34;;;;;;;;;;;17.10;99.90;;;;;;5072078;28;19967;-64
2022/11/02 10:02:05;;;;;;;;;;;17.40;99.90;;;;;;5072172;28;20457;-65
2022/11/02 10:05:00;;;;;;;;;;;17.70;99.90;;;;;;5072507;28;20355;-65
2022/11/02 10:07:41;;;;;;;;;;;18.00;99.90;;;;;;5070986;28;20042;-65
2022/11/02 10:10:11;;;;;;;;;;;17.80;99.90;;;;;;5063794;28;19982;-65
2022/11/02 10:12:42;;;;;;;;;;;17.60;99.90;;;;;;5072115;28;19966;-65
2022/11/02 10:15:15;;;;;;;;;;;17.50;99.90;;;;;;5072369;28;19990;-65
2022/11/02 10:17:46;;;;;;;;;;;17.40;99.90;;;;;;5071836;28;19978;-65
2022/11/02 10:20:18;;;;;;;;;;;17.40;99.90;;;;;;5069200;28;19966;-65
2022/11/02 10:22:46;;;;;;;;;;;17.10;99.90;;;;;;5071609;28;19985;-64
2022/11/02 10:25:15;;;;;;;;;;;16.70;99.90;;;;;;5071818;28;19971;-65
2022/11/02 10:27:44;;;;;;;;;;;16.40;99.90;;;;;;5071669;28;19967;-65
2022/11/02 10:30:15;;;;;;;;;;;16.30;99.90;;;;;;5071704;28;20044;-64
2022/11/02 10:32:44;;;;;;;;;;;16.10;99.90;;;;;;5071963;28;19968;-64
2022/11/02 10:35:17;;;;;;;;;;;15.70;99.90;;;;;;5072178;28;20435;-64
2022/11/02 10:38:11;;;;;;;;;;;15.50;99.90;;;;;;5071653;28;20360;-64
2022/11/02 10:40:48;;;;;;;;;;;15.40;99.90;;;;;;5071564;28;20066;-64
2022/11/02 10:43:24;;;;;;;;;;;15.40;99.90;;;;;;5071848;28;19968;-64
2022/11/02 10:46:04;;;;;;;;;;;15.20;99.90;;;;;;5071849;28;19974;-64
2022/11/02 10:48:37;;;;;;;;;;;15.10;99.90;;;;;;5071348;28;19972;-64
2022/11/02 10:51:08;;;;;;;;;;;15.10;99.90;;;;;;5071201;28;19971;-64
2022/11/02 10:53:38;;;;;;;;;;;15.30;99.90;;;;;;5071619;28;19971;-64
2022/11/02 10:56:16;;;;;;;;;;;15.50;99.90;;;;;;5071731;28;20021;-64
2022/11/02 10:58:49;;;;;;;;;;;16.20;99.90;;;;;;5071203;28;20416;-64
2022/11/02 11:01:18;;;;;;;;;;;16.70;99.90;;;;;;5071486;28;19967;-65
2022/11/02 11:03:56;;;;;;;;;;;17.60;99.90;;;;;;5071714;28;19970;-65
2022/11/02 11:06:25;;;;;;;;;;;18.40;99.90;;;;;;5071624;28;20450;-65
2022/11/02 11:08:58;;;;;;;;;;;19.00;99.90;;;;;;5071161;28;19976;-64
2022/11/02 11:11:28;;;;;;;;;;;18.90;99.90;;;;;;5071366;28;19977;-64
2022/11/02 11:13:57;;;;;;;;;;;18.90;99.90;;;;;;5071723;28;19975;-64
2022/11/02 11:16:48;;;;;;;;;;;19.20;99.90;;;;;;5071354;28;19977;-64
2022/11/02 11:19:22;;;;;;;;;;;19.50;99.90;;;;;;5073866;28;20490;-64
2022/11/02 11:22:22;;;;;;;;;;;19.50;99.90;;;;;;5075559;28;19989;-65
2022/11/02 11:24:50;;;;;;;;;;;19.90;99.90;;;;;;5055169;28;19970;-65
2022/11/02 11:27:18;;;;;;;;;;;19.90;99.90;;;;;;5054744;28;20443;-64
2022/11/02 11:29:47;;;;;;;;;;;20.10;99.90;;;;;;5054613;28;19967;-64
2022/11/02 11:32:18;;;;;;;;;;;20.10;99.90;;;;;;5054871;28;19977;-64
2022/11/02 11:34:49;;;;;;;;;;;20.80;99.90;;;;;;5054956;28;20460;-64
2022/11/02 11:37:17;;;;;;;;;;;20.80;99.70;;;;;;5054885;28;19967;-63
2022/11/02 11:39:46;;;;;;;;;;;20.00;99.90;;;;;;5054391;28;19977;-64
2022/11/02 11:42:21;;;;;;;;;;;19.40;99.90;;;;;;5054798;28;19967;-64
2022/11/02 11:44:52;;;;;;;;;;;18.70;99.90;;;;;;5054567;28;19971;-64
2022/11/02 11:47:25;;;;;;;;;;;18.60;99.90;;;;;;5054499;28;20009;-64
2022/11/02 11:49:53;;;;;;;;;;;19.30;99.90;;;;;;5166286;23;20342;-63
2022/11/02 11:52:41;;;;;;;;;;;19.90;99.90;;;;;;5034144;28;20333;-63
2022/11/02 11:55:20;;;;;;;;;;;20.50;99.90;;;;;;5034575;28;19973;-63
2022/11/02 11:58:03;;;;;;;;;;;20.70;99.90;;;;;;5034132;28;19977;-63
2022/11/02 12:00:33;;;;;;;;;;;20.80;99.90;;;;;;5034330;28;19975;-63
2022/11/02 12:03:06;;;;;;;;;;;19.70;99.90;;;;;;5034510;28;20049;-63
2022/11/02 12:05:38;;;;;;;;;;;19.10;99.90;;;;;;5034473;28;20334;-65
2022/11/02 12:08:13;;;;;;;;;;;18.40;99.90;;;;;;5034044;28;19967;-65
2022/11/02 12:10:47;;;;;;;;;;;18.60;99.90;;;;;;5034211;28;19971;-65
2022/11/02 12:13:22;;;;;;;;;;;18.90;99.90;;;;;;5034166;28;20448;-65
2022/11/02 12:15:57;;;;;;;;;;;19.50;99.90;;;;;;5034253;28;19990;-65
2022/11/02 12:18:43;;;;;;;;;;;19.90;99.90;;;;;;5033917;28;20482;-65
2022/11/02 12:21:18;;;;;;;;;;;19.70;99.90;;;;;;5049888;28;20014;-64
2022/11/02 12:23:51;;;;;;;;;;;19.80;99.90;;;;;;5046885;28;20004;-64
2022/11/02 12:26:24;;;;;;;;;;;20.50;99.90;;;;;;5053951;28;19966;-63
2022/11/02 12:28:57;;;;;;;;;;;20.80;99.90;;;;;;5053615;28;20476;-63
2022/11/02 12:31:30;;;;;;;;;;;21.20;99.90;;;;;;5052777;28;19966;-63
2022/11/02 12:34:11;;;;;;;;;;;21.50;99.50;;;;;;5053816;28;19969;-63
2022/11/02 12:36:44;;;;;;;;;;;21.70;99.10;;;;;;5053859;28;20266;-63
2022/11/02 12:39:37;;;;;;;;;;;21.80;98.80;;;;;;5053270;28;19975;-63
2022/11/02 12:42:11;;;;;;;;;;;21.70;98.60;;;;;;5053606;28;20349;-63
2022/11/02 12:44:48;;;;;;;;;;;21.80;98.00;;;;;;5053380;28;20281;-63
2022/11/02 12:47:21;;;;;;;;;;;21.60;97.30;;;;;;5053672;28;20367;-63
2022/11/02 12:49:55;;;;;;;;;;;21.10;98.10;;;;;;5052779;28;19971;-63
2022/11/02 12:52:28;;;;;;;;;;;21.10;98.50;;;;;;5044814;28;20070;-63
2022/11/02 12:54:56;;;;;;;;;;;20.70;98.00;;;;;;5053344;28;19966;-63
2022/11/02 12:57:27;;;;;;;;;;;20.70;98.30;;;;;;5053212;28;19971;-63
2022/11/02 12:59:57;;;;;;;;;;;20.40;98.60;;;;;;5052793;28;20002;-63
2022/11/02 13:02:27;;;;;;;;;;;20.30;98.60;;;;;;5053006;28;19970;-62
2022/11/02 13:04:57;;;;;;;;;;;20.00;99.00;;;;;;5053095;28;20449;-64
2022/11/02 13:07:29;;;;;;;;;;;19.60;99.70;;;;;;5053182;28;20057;-65
2022/11/02 13:10:00;;;;;;;;;;;19.30;99.30;;;;;;5052911;28;20007;-65
2022/11/02 13:12:30;;;;;;;;;;;19.00;99.90;;;;;;5053293;28;20053;-65
2022/11/02 13:14:58;;;;;;;;;;;18.60;99.90;;;;;;5053011;28;19979;-65
2022/11/02 13:17:30;;;;;;;;;;;18.20;99.90;;;;;;5052894;28;19973;-65
2022/11/02 13:20:01;;;;;;;;;;;18.10;99.90;;;;;;5052444;28;19967;-65
2022/11/02 13:22:33;;;;;;;;;;;17.90;99.90;;;;;;5044273;28;19967;-65
2022/11/02 13:25:03;;;;;;;;;;;17.70;99.90;;;;;;5052793;28;20358;-64
2022/11/02 13:27:32;;;;;;;;;;;17.40;99.90;;;;;;5052668;28;19973;-64
2022/11/02 13:30:05;;;;;;;;;;;17.20;99.90;;;;;;5052319;28;20044;-64
2022/11/02 13:32:34;;;;;;;;;;;17.00;99.90;;;;;;5052575;28;19973;-64
2022/11/02 13:35:07;;;;;;;;;;;16.80;99.90;;;;;;5052525;28;20010;-65
2022/11/02 13:37:35;;;;;;;;;;;16.70;99.90;;;;;;5052935;28;19967;-62
2022/11/02 13:40:06;;;;;;;;;;;16.60;99.90;;;;;;5052062;28;19975;-63
2022/11/02 13:42:44;;;;;;;;;;;16.40;99.90;;;;;;5052481;28;20328;-62
2022/11/02 13:45:22;;;;;;;;;;;16.40;99.90;;;;;;5052657;28;20324;-63
2022/11/02 13:48:10;;;;;;;;;;;16.40;99.90;;;;;;5052352;28;20428;-63
2022/11/02 13:50:42;;;;;;;;;;;16.30;99.90;;;;;;5051705;28;20381;-63
2022/11/02 13:53:16;;;;;;;;;;;16.30;99.90;;;;;;5043788;28;20053;-63
2022/11/02 13:55:45;;;;;;;;;;;16.20;99.90;;;;;;5052299;28;19971;-63
2022/11/02 13:58:20;;;;;;;;;;;16.10;99.90;;;;;;5052253;28;20098;-63
2022/11/02 14:00:48;;;;;;;;;;;16.10;99.90;;;;;;5051830;28;19967;-63
2022/11/02 14:03:18;;;;;;;;;;;16.00;99.90;;;;;;5051922;28;20055;-63
2022/11/02 14:05:48;;;;;;;;;;;16.00;99.90;;;;;;5051867;28;19974;-63
2022/11/02 14:08:19;;;;;;;;;;;15.90;99.90;;;;;;5051951;28;19975;-63
2022/11/02 14:11:01;;;;;;;;;;;15.90;99.90;;;;;;5051671;28;19968;-63
2022/11/02 14:13:49;;;;;;;;;;;15.80;99.90;;;;;;5051901;28;19975;-63
2022/11/02 14:16:31;;;;;;;;;;;15.80;99.90;;;;;;5051964;28;19978;-63
2022/11/02 14:19:13;;;;;;;;;;;15.70;99.90;;;;;;5051240;28;19970;-62
2022/11/02 14:22:04;;;;;;;;;;;15.50;99.90;;;;;;5039936;28;19984;-63
2022/11/02 14:24:52;;;;;;;;;;;15.40;99.90;;;;;;5050763;28;20454;-63
2022/11/02 14:27:30;;;;;;;;;;;15.30;99.90;;;;;;5051899;28;19995;-63
2022/11/02 14:29:58;;;;;;;;;;;15.30;99.90;;;;;;5051296;28;19976;-63
2022/11/02 14:32:33;;;;;;;;;;;15.30;99.90;;;;;;5051854;28;19972;-63
2022/11/02 14:35:07;;;;;;;;;;;15.30;99.90;;;;;;5051524;28;20014;-63
2022/11/02 14:37:51;;;;;;;;;;;15.30;99.90;;;;;;5051879;28;20037;-62
2022/11/02 14:40:24;;;;;;;;;;;15.40;99.90;;;;;;5051741;28;19967;-63
2022/11/02 14:43:01;;;;;;;;;;;15.40;99.90;;;;;;5051683;28;19973;-63
2022/11/02 14:45:34;;;;;;;;;;;15.40;99.90;;;;;;5051647;28;19967;-62
2022/11/02 14:48:03;;;;;;;;;;;15.40;99.90;;;;;;5051676;28;20448;-63
2022/11/02 14:50:31;;;;;;;;;;;15.30;99.90;;;;;;5050678;28;19979;-63